Time;durP1;ratioP1;P1;durP2;ratioP2;P2;SDS_P1;SDS_P2;PMS_P1;PMS_P2;Temp;Humidity;BMP_temperature;BMP_pressure;BME280_temperature;BME280_humidity;BME280_pressure;Samples;Min_cycle;Max_cycle;Signal;HPM_P1;HPM_P2
2022/05/28 00:01:51;;;;;;;8.30;5.08;;;;;;;14.63;100.00;98820.80;1677380;85;21106;-74
2022/05/28 00:04:18;;;;;;;9.18;4.90;;;;;;;14.61;100.00;98805.25;1677691;85;21063;-75
2022/05/28 00:06:46;;;;;;;7.78;5.12;;;;;;;14.59;100.00;98785.61;1671058;86;20992;-74
2022/05/28 00:09:14;;;;;;;12.05;5.55;;;;;;;14.58;100.00;98769.80;1670938;85;21047;-75
2022/05/28 00:11:44;;;;;;;6.90;4.93;;;;;;;14.56;100.00;98759.64;1677550;85;21047;-75
2022/05/28 00:14:12;;;;;;;5.85;4.85;;;;;;;14.54;100.00;98744.08;1677592;86;21058;-77
2022/05/28 00:16:41;;;;;;;6.20;5.00;;;;;;;14.52;100.00;98711.36;1671072;85;21055;-74
2022/05/28 00:19:08;;;;;;;7.92;4.75;;;;;;;14.52;100.00;98711.36;1670978;85;21055;-74
2022/05/28 00:21:36;;;;;;;7.00;4.78;;;;;;;14.50;100.00;98700.73;1677455;85;21011;-74
2022/05/28 00:24:03;;;;;;;8.45;4.58;;;;;;;14.50;100.00;98691.72;1648281;86;21094;-75
2022/05/28 00:26:30;;;;;;;6.15;4.65;;;;;;;14.47;100.00;98676.70;1677734;85;21020;-74
2022/05/28 00:28:58;;;;;;;8.23;5.20;;;;;;;14.44;100.00;98656.77;1677541;85;21070;-74
2022/05/28 00:31:25;;;;;;;7.08;4.70;;;;;;;14.43;100.00;98650.50;1677452;85;21078;-76
2022/05/28 00:33:54;;;;;;;6.70;4.70;;;;;;;14.42;100.00;98643.39;1677295;85;21023;-74
2022/05/28 00:36:21;;;;;;;6.58;4.45;;;;;;;14.38;100.00;98632.69;1677728;85;21540;-75
2022/05/28 00:38:48;;;;;;;6.22;4.50;;;;;;;14.39;100.00;98624.81;1679506;85;21058;-76
2022/05/28 00:41:15;;;;;;;7.58;4.53;;;;;;;14.34;100.00;98614.33;1681576;85;21050;-76
2022/05/28 00:43:43;;;;;;;6.30;4.67;;;;;;;14.34;100.00;98614.33;1682113;84;21078;-75
2022/05/28 00:46:17;;;;;;;7.85;4.50;;;;;;;14.33;100.00;98614.05;1684652;84;21080;-74
2022/05/28 00:48:46;;;;;;;4.70;4.20;;;;;;;14.30;100.00;98609.06;1624872;88;21079;-73
2022/05/28 00:51:21;;;;;;;7.58;4.42;;;;;;;14.29;100.00;98609.60;1603557;88;21074;-74
2022/05/28 00:53:49;;;;;;;6.45;4.00;;;;;;;14.29;100.00;98609.60;1599508;89;21059;-73
2022/05/28 00:56:16;;;;;;;6.15;4.00;;;;;;;14.27;100.00;98606.29;1599370;89;21064;-75
2022/05/28 00:58:45;;;;;;;4.65;3.95;;;;;;;14.24;100.00;98603.48;1589610;89;21604;-74
2022/05/28 01:01:14;;;;;;;4.70;3.87;;;;;;;14.23;100.00;98606.43;1589659;89;21032;-74
2022/05/28 01:04:08;;;;;;;6.83;4.20;;;;;;;14.20;100.00;98606.37;1616427;89;21016;-74
2022/05/28 01:06:46;;;;;;;7.50;3.83;;;;;;;14.21;100.00;98609.91;1598737;89;21071;-73
2022/05/28 01:09:22;;;;;;;4.60;4.10;;;;;;;14.18;100.00;98609.85;1601337;89;21126;-72
2022/05/28 01:12:10;;;;;;;5.15;3.92;;;;;;;14.15;100.00;98608.95;1594860;89;21024;-74
2022/05/28 01:14:46;;;;;;;7.83;4.50;;;;;;;14.15;100.00;98608.95;1620692;89;21047;-73
2022/05/28 01:17:40;;;;;;;4.47;4.00;;;;;;;14.12;100.00;98612.11;1577124;91;21139;-74
2022/05/28 01:20:12;;;;;;;5.10;3.92;;;;;;;14.11;100.00;98610.47;1577395;91;21436;-73
2022/05/28 01:23:16;;;;;;;7.28;3.87;;;;;;;14.10;100.00;98616.13;1565905;90;21534;-74
2022/05/28 01:25:56;;;;;;;5.37;4.05;;;;;;;14.09;100.00;98622.08;1566017;90;21098;-74
2022/05/28 01:28:29;;;;;;;6.42;3.98;;;;;;;14.08;100.00;98627.23;1586584;90;21082;-73
2022/05/28 01:30:58;;;;;;;6.17;4.00;;;;;;;14.06;100.00;98622.55;1524604;94;21118;-73
2022/05/28 01:33:25;;;;;;;7.37;3.87;;;;;;;14.03;100.00;98621.11;1513486;91;21141;-74
2022/05/28 01:35:53;;;;;;;6.35;3.70;;;;;;;14.03;100.00;98627.08;1532559;94;21161;-73
2022/05/28 01:38:20;;;;;;;7.58;3.85;;;;;;;14.03;100.00;98618.92;1522512;91;21107;-73
2022/05/28 01:40:48;;;;;;;7.12;3.87;;;;;;;14.00;100.00;98611.22;1539653;92;21142;-74
2022/05/28 01:43:17;;;;;;;5.47;3.92;;;;;;;13.98;100.00;98616.88;1525746;93;21127;-75
2022/05/28 01:45:45;;;;;;;4.12;3.70;;;;;;;14.00;100.00;98618.02;1550276;91;21039;-72
2022/05/28 01:48:12;;;;;;;5.72;3.65;;;;;;;13.99;100.00;98613.12;1546824;92;21115;-71
2022/05/28 01:50:45;;;;;;;7.33;3.80;;;;;;;13.98;100.00;98615.52;1577298;91;21110;-74
2022/05/28 01:54:07;;;;;;;5.12;3.75;;;;;;;13.96;100.00;98616.28;1531710;94;21608;-73
2022/05/28 01:55:44;;;;;;;5.42;3.90;;;;;;;13.97;100.00;98620.67;1529065;94;21080;-74
2022/05/28 01:58:11;;;;;;;7.05;3.80;;;;;;;13.98;100.00;98620.14;1531815;94;21584;-73
2022/05/28 02:00:39;;;;;;;6.35;3.70;;;;;;;13.97;100.00;98617.95;1531788;94;21575;-74
2022/05/28 02:03:06;;;;;;;4.55;3.40;;;;;;;14.00;100.00;98615.30;1531868;94;21098;-73
2022/05/28 02:05:35;;;;;;;4.00;3.30;;;;;;;14.04;100.00;98617.85;1513444;94;21047;-74
2022/05/28 02:08:02;;;;;;;6.78;3.25;;;;;;;14.08;100.00;98608.71;1512734;94;21035;-72
2022/05/28 02:10:29;;;;;;;5.42;3.90;;;;;;;14.12;100.00;98614.02;1531816;94;21095;-72
2022/05/28 02:13:11;;;;;;;5.08;3.50;;;;;;;14.15;100.00;98611.66;1516107;92;21168;-73
2022/05/28 02:15:52;;;;;;;5.60;3.60;;;;;;;14.18;100.00;98609.85;1496511;96;21104;-75
2022/05/28 02:18:46;;;;;;;5.67;3.58;;;;;;;14.21;100.00;98611.27;1491449;96;21193;-74
2022/05/28 02:21:39;;;;;;;5.25;3.27;;;;;;;14.23;100.00;98611.33;1461290;98;21161;-74
2022/05/28 02:24:17;;;;;;;7.72;3.58;;;;;;;14.26;100.00;98609.23;1445006;98;21105;-72
2022/05/28 02:26:55;;;;;;;4.90;3.58;;;;;;;14.31;100.00;98644.72;1444120;98;21085;-75
2022/05/28 02:29:22;;;;;;;6.42;3.70;;;;;;;14.31;100.00;98644.72;1492488;96;21121;-73
2022/05/28 02:31:49;;;;;;;5.47;3.80;;;;;;;14.33;100.00;98646.14;1492343;96;21158;-71
2022/05/28 02:34:17;;;;;;;5.97;3.58;;;;;;;14.36;100.00;98659.79;1508808;94;21159;-73
2022/05/28 02:36:44;;;;;;;5.40;3.50;;;;;;;14.38;100.00;98656.34;1503374;95;21155;-75
2022/05/28 02:39:12;;;;;;;6.50;3.60;;;;;;;14.41;100.00;98664.02;1508967;95;21101;-76
2022/05/28 02:41:39;;;;;;;5.60;3.50;;;;;;;14.42;100.00;98662.97;1513569;95;21117;-74
2022/05/28 02:44:09;;;;;;;8.28;4.17;;;;;;;14.44;100.00;98675.80;1513064;95;22413;-74
2022/05/28 02:46:38;;;;;;;5.47;3.60;;;;;;;14.46;100.00;98672.85;1512990;94;21134;-74
2022/05/28 02:49:05;;;;;;;3.47;3.17;;;;;;;14.44;100.00;98673.91;1500665;92;21627;-74
2022/05/28 02:51:34;;;;;;;4.50;3.40;;;;;;;14.44;100.00;98682.06;1566552;92;21654;-74
2022/05/28 02:54:01;;;;;;;5.87;3.60;;;;;;;14.44;100.00;98678.52;1566543;92;21034;-74
2022/05/28 02:56:28;;;;;;;5.33;3.65;;;;;;;14.46;100.00;98679.66;1546555;92;21114;-73
2022/05/28 02:58:55;;;;;;;7.45;3.60;;;;;;;14.42;100.00;98681.47;1592593;87;21111;-73
2022/05/28 03:01:29;;;;;;;5.15;3.65;;;;;;;14.40;100.00;98682.23;1644672;87;21067;-73
2022/05/28 03:03:56;;;;;;;7.53;3.50;;;;;;;14.41;100.00;98680.33;1638458;87;21106;-72
2022/05/28 03:06:23;;;;;;;4.70;3.60;;;;;;;14.40;100.00;98682.23;1638659;87;21075;-72
2022/05/28 03:08:50;;;;;;;6.65;3.50;;;;;;;14.41;100.00;98680.33;1644327;87;21047;-74
2022/05/28 03:11:17;;;;;;;5.75;3.42;;;;;;;14.44;100.00;98679.34;1655639;82;21085;-73
2022/05/28 03:13:45;;;;;;;5.70;3.50;;;;;;;14.54;100.00;98673.37;1739120;82;21070;-73
2022/05/28 03:16:12;;;;;;;6.08;3.75;;;;;;;14.63;100.00;98666.28;1746547;82;21070;-73
2022/05/28 03:18:39;;;;;;;4.67;3.60;;;;;;;14.68;100.00;98665.03;1715017;82;21010;-73
2022/05/28 03:21:06;;;;;;;6.12;3.70;;;;;;;14.72;100.00;98656.73;1739047;82;21528;-72
2022/05/28 03:23:33;;;;;;;4.58;3.60;;;;;;;14.74;100.00;98652.70;1746171;82;21456;-73
2022/05/28 03:26:24;;;;;;;6.33;3.83;;;;;;;14.76;100.00;98651.94;1739385;82;21070;-74
2022/05/28 03:28:53;;;;;;;6.95;3.80;;;;;;;14.77;100.00;98648.16;1746646;82;21085;-73
2022/05/28 03:31:20;;;;;;;5.62;3.92;;;;;;;14.83;100.00;98646.94;1746394;82;21033;-72
2022/05/28 03:33:47;;;;;;;5.55;3.62;;;;;;;14.86;100.00;98654.11;1746361;82;21083;-74
2022/05/28 03:36:14;;;;;;;5.03;3.50;;;;;;;14.89;100.00;98645.48;1738787;82;21051;-73
2022/05/28 03:38:42;;;;;;;4.60;3.17;;;;;;;14.92;100.00;98645.00;1735624;82;21028;-73
2022/05/28 03:41:10;;;;;;;6.90;3.95;;;;;;;15.00;100.00;98645.20;1718040;82;21042;-72
2022/05/28 03:43:38;;;;;;;4.17;3.60;;;;;;;15.05;100.00;98639.89;1718264;83;21042;-74
2022/05/28 03:46:05;;;;;;;5.62;3.40;;;;;;;15.12;100.00;98630.23;1721107;82;21074;-74
2022/05/28 03:48:33;;;;;;;5.25;3.80;;;;;;;15.18;100.00;98634.21;1696748;85;21050;-74
2022/05/28 03:51:00;;;;;;;5.78;3.60;;;;;;;15.21;100.00;98628.84;1685843;85;21042;-74
2022/05/28 03:53:27;;;;;;;6.97;3.77;;;;;;;15.21;100.00;98629.36;1663218;85;21062;-71
2022/05/28 03:55:54;;;;;;;8.05;4.35;;;;;;;15.19;100.00;98634.52;1686138;84;21050;-72
2022/05/28 03:58:21;;;;;;;6.40;3.95;;;;;;;15.19;100.00;98633.67;1685786;85;21551;-74
2022/05/28 04:00:48;;;;;;;5.50;4.05;;;;;;;15.22;100.00;98622.31;1697187;84;21074;-72
2022/05/28 04:03:15;;;;;;;9.78;3.90;;;;;;;15.30;100.00;98625.23;1696550;85;21061;-74
2022/05/28 04:05:43;;;;;;;5.25;3.30;;;;;;;15.40;100.00;98621.37;1685900;85;21058;-71
2022/05/28 04:08:11;;;;;;;11.53;4.03;;;;;;;15.51;100.00;98628.73;1696346;85;21504;-71
2022/05/28 04:10:38;;;;;;;5.47;4.08;;;;;;;15.60;100.00;98635.16;1685331;85;21062;-72
2022/05/28 04:13:07;;;;;;;7.90;4.35;;;;;;;15.65;100.00;98637.48;1685610;85;21023;-72
2022/05/28 04:15:34;;;;;;;5.97;3.90;;;;;;;15.74;100.00;98640.17;1696524;85;21023;-72
2022/05/28 04:18:01;;;;;;;7.78;4.08;;;;;;;15.88;100.00;98632.56;1696666;84;20974;-73
2022/05/28 04:20:28;;;;;;;7.30;3.98;;;;;;;16.02;100.00;98630.38;1662656;85;21133;-72
2022/05/28 04:22:55;;;;;;;6.97;3.85;;;;;;;16.13;100.00;98647.80;1696650;84;21514;-73
2022/05/28 04:25:22;;;;;;;8.00;4.00;;;;;;;16.23;100.00;98653.98;1696766;84;21062;-72
2022/05/28 04:27:50;;;;;;;6.65;4.03;;;;;;;16.33;100.00;98663.74;1685524;85;21070;-74
2022/05/28 04:30:17;;;;;;;8.70;3.55;;;;;;;16.40;100.00;98673.16;1685585;84;21058;-72
2022/05/28 04:32:46;;;;;;;9.43;4.00;;;;;;;16.44;100.00;98677.86;1696837;84;21066;-73
2022/05/28 04:35:13;;;;;;;10.50;4.15;;;;;;;16.49;100.00;98683.97;1696865;84;21090;-73
2022/05/28 04:37:41;;;;;;;7.60;3.87;;;;;;;16.52;100.00;98698.50;1696837;84;21089;-75
2022/05/28 04:40:10;;;;;;;7.37;4.22;;;;;;;16.55;100.00;98706.17;1704023;84;21007;-74
2022/05/28 04:42:37;;;;;;;7.42;4.20;;;;;;;16.58;100.00;98711.16;1695319;85;21034;-74
2022/05/28 04:45:06;;;;;;;11.28;4.28;;;;;;;16.70;100.00;98705.66;1692034;85;21042;-74
2022/05/28 04:47:33;;;;;;;9.95;4.05;;;;;;;16.82;100.00;98717.88;1694076;83;21094;-72
2022/05/28 04:50:00;;;;;;;9.53;4.10;;;;;;;16.93;100.00;98726.60;1666333;84;21019;-74
2022/05/28 04:52:27;;;;;;;10.15;3.90;;;;;;;17.03;100.00;98734.98;1676665;84;21123;-72
2022/05/28 04:54:54;;;;;;;9.73;4.35;;;;;;;17.16;100.00;98747.50;1666126;86;21039;-76
2022/05/28 04:57:22;;;;;;;8.30;3.60;;;;;;;17.31;100.00;98748.84;1676655;84;21091;-75
2022/05/28 04:59:50;;;;;;;7.05;4.10;;;;;;;17.43;100.00;98759.98;1666026;84;21083;-72
2022/05/28 05:02:17;;;;;;;7.60;3.80;;;;;;;17.53;100.00;98768.91;1665607;84;21122;-76
2022/05/28 05:04:44;;;;;;;8.50;4.08;;;;;;;17.61;100.00;98775.31;1676846;84;21043;-74
2022/05/28 05:07:12;;;;;;;7.03;4.08;;;;;;;17.70;100.00;98788.03;1666777;84;21058;-72
2022/05/28 05:09:39;;;;;;;4.75;3.90;;;;;;;17.95;100.00;98790.37;1666317;84;21098;-74
2022/05/28 05:12:07;;;;;;;8.78;4.47;;;;;;;18.20;100.00;98795.94;1644447;86;21035;-74
2022/05/28 05:14:35;;;;;;;6.78;4.35;;;;;;;18.34;100.00;98819.67;1676930;84;21059;-74
2022/05/28 05:17:02;;;;;;;14.63;10.38;;;;;;;18.43;100.00;98828.28;1644483;86;21058;-73
2022/05/28 05:19:29;;;;;;;7.80;4.90;;;;;;;18.56;100.00;98838.88;1677434;85;21063;-75
2022/05/28 05:22:00;;;;;;;11.35;4.50;;;;;;;18.67;100.00;98838.48;1677505;86;21063;-74
2022/05/28 05:24:28;;;;;;;9.03;6.25;;;;;;;18.89;100.00;98841.24;1677047;86;21039;-76
2022/05/28 05:26:56;;;;;;;9.23;4.50;;;;;;;19.09;100.00;98850.27;1667504;84;21019;-73
2022/05/28 05:29:23;;;;;;;7.65;4.08;;;;;;;19.30;100.00;98875.97;1677280;86;21101;-73
2022/05/28 05:31:50;;;;;;;8.65;4.00;;;;;;;19.43;100.00;98890.66;1677460;84;20996;-75
2022/05/28 05:34:17;;;;;;;10.82;4.03;;;;;;;19.46;100.00;98918.94;1677383;86;21059;-75
2022/05/28 05:36:44;;;;;;;7.72;4.10;;;;;;;19.58;100.00;98922.88;1644444;86;20995;-75
2022/05/28 05:39:11;;;;;;;8.38;4.60;;;;;;;19.70;100.00;98942.77;1676735;84;21030;-75
2022/05/28 05:41:42;;;;;;;13.35;4.40;;;;;;;19.70;100.00;98961.14;1676177;84;21106;-74
2022/05/28 05:44:10;;;;;;;7.40;3.92;;;;;;;19.70;100.00;98970.19;1665045;84;21082;-75
2022/05/28 05:46:41;;;;;;;18.32;4.67;;;;;;;19.64;100.00;98983.56;1680688;84;21069;-76
2022/05/28 05:49:09;;;;;;;12.45;4.65;;;;;;;19.57;100.00;98988.42;1684467;84;21137;-73
2022/05/28 05:51:39;;;;;;;11.88;4.87;;;;;;;19.72;100.00;98976.27;1681324;84;21561;-74
2022/05/28 05:54:07;;;;;;;7.00;4.40;;;;;;;19.82;100.00;98988.45;1683923;84;21077;-74
2022/05/28 05:56:34;;;;;;;8.15;4.30;;;;;;;19.96;100.00;98984.22;1683608;84;21086;-76
2022/05/28 05:59:01;;;;;;;8.48;4.30;;;;;;;20.22;100.00;98990.80;1681281;84;21161;-71
2022/05/28 06:01:28;;;;;;;59.13;49.90;;;;;;;20.37;100.00;99005.20;1682712;84;21054;-74
2022/05/28 06:03:55;;;;;;;10.30;6.25;;;;;;;20.39;100.00;99020.86;1682888;85;21066;-72
2022/05/28 06:06:22;;;;;;;10.05;6.05;;;;;;;20.55;100.00;99032.80;1682217;84;21504;-74
2022/05/28 06:08:49;;;;;;;13.30;5.08;;;;;;;20.65;100.00;99030.19;1687311;83;21039;-72
2022/05/28 06:11:17;;;;;;;6.55;4.40;;;;;;;20.82;100.00;99043.80;1736469;82;21096;-73
2022/05/28 06:13:44;;;;;;;9.90;5.10;;;;;;;20.91;100.00;99062.00;1755254;81;20999;-73
2022/05/28 06:16:11;;;;;;;11.18;5.83;;;;;;;20.96;100.00;99065.31;1736499;82;21018;-73
2022/05/28 06:18:39;;;;;;;12.73;6.12;;;;;;;20.96;100.00;99081.24;1736051;82;21038;-72
2022/05/28 06:21:06;;;;;;;11.18;6.53;;;;;;;20.98;100.00;99089.23;1755036;81;21026;-74
2022/05/28 06:23:33;;;;;;;12.58;6.03;;;;;;;20.98;100.00;99091.45;1754877;81;20999;-73
2022/05/28 06:26:02;;;;;;;11.30;5.67;;;;;;;20.93;100.00;99098.28;1754931;81;21022;-73
2022/05/28 06:28:30;;;;;;;8.53;5.03;;;;;;;21.08;100.00;99095.36;1751484;82;21025;-73
2022/05/28 06:31:01;;;;;;;8.93;4.25;;;;;;;21.22;100.00;99100.69;1735761;82;21523;-72
2022/05/28 06:33:29;;;;;;;7.30;4.10;;;;;;;21.20;100.00;99111.13;1755544;81;21045;-73
2022/05/28 06:35:58;;;;;;;7.05;3.70;;;;;;;21.14;100.00;99113.53;1756588;81;21018;-72
2022/05/28 06:38:26;;;;;;;7.95;3.92;;;;;;;21.06;100.00;99117.61;1706008;82;20965;-74
2022/05/28 06:40:53;;;;;;;8.43;3.80;;;;;;;20.93;100.00;99125.75;1670935;85;21005;-73
2022/05/28 06:43:21;;;;;;;5.05;3.40;;;;;;;20.79;100.00;99140.46;1694448;85;20969;-72
2022/05/28 06:45:48;;;;;;;7.05;4.20;;;;;;;20.81;100.00;99145.70;1694190;85;21029;-73
2022/05/28 06:48:16;;;;;;;6.33;3.92;;;;;;;20.89;100.00;99148.51;1672474;84;21076;-73
2022/05/28 06:51:02;;;;;;;7.10;4.10;;;;;;;20.98;100.00;99156.55;1699499;84;21028;-73
2022/05/28 06:53:37;;;;;;;8.15;3.67;;;;;;;21.17;100.00;99150.13;1675961;84;21032;-74
2022/05/28 06:56:06;;;;;;;6.00;3.30;;;;;;;21.63;100.00;99141.41;1699075;84;20996;-73
2022/05/28 06:58:33;;;;;;;7.70;3.35;;;;;;;21.92;100.00;99177.08;1675456;84;21040;-72
2022/05/28 07:01:02;;;;;;;6.78;4.00;;;;;;;21.76;100.00;99199.55;1698042;84;21624;-71
2022/05/28 07:03:32;;;;;;;6.50;3.17;;;;;;;21.88;100.00;99201.27;1698347;84;21139;-74
2022/05/28 07:05:58;;;;;;;5.45;3.30;;;;;;;22.00;100.00;99216.47;1699047;84;21560;-73
2022/05/28 07:08:27;;;;;;;4.62;3.25;;;;;;;22.16;100.00;99226.19;1699118;84;21365;-73
2022/05/28 07:10:57;;;;;;;4.37;3.17;;;;;;;22.42;100.00;99229.94;1675746;84;21143;-74
2022/05/28 07:13:24;;;;;;;4.33;3.10;;;;;;;22.73;100.00;99253.45;1699242;84;21482;-74
2022/05/28 07:15:52;;;;;;;3.70;3.00;;;;;;;22.85;100.00;99281.61;1675328;84;21020;-73
2022/05/28 07:18:20;;;;;;;6.67;3.20;;;;;;;22.83;100.00;99296.77;1703512;84;21017;-75
2022/05/28 07:20:48;;;;;;;9.35;3.17;;;;;;;22.65;100.00;99302.22;1714491;83;21052;-72
2022/05/28 07:23:23;;;;;;;11.63;3.80;;;;;;;22.61;100.00;99307.44;1713516;84;21076;-73
2022/05/28 07:25:59;;;;;;;12.93;4.20;;;;;;;22.73;100.00;99308.05;1692673;83;21053;-73
2022/05/28 07:28:31;;;;;;;5.50;3.80;;;;;;;22.90;100.00;99320.22;1707843;83;21065;-70
2022/05/28 07:31:01;;;;;;;5.42;3.30;;;;;;;23.20;100.00;99311.80;1713643;83;21068;-72
2022/05/28 07:33:32;;;;;;;5.87;3.77;;;;;;;23.61;100.00;99326.20;1655680;86;21082;-73
2022/05/28 07:36:00;;;;;;;11.73;4.45;;;;;;;23.90;100.00;99320.17;1706652;83;21170;-73
2022/05/28 07:38:28;;;;;;;8.50;4.22;;;;;;;24.12;100.00;99325.41;1717308;83;21037;-73
2022/05/28 07:40:55;;;;;;;5.75;3.15;;;;;;;24.37;100.00;99343.31;1720627;83;21016;-74
2022/05/28 07:43:22;;;;;;;6.47;3.10;;;;;;;24.50;100.00;99347.98;1699859;82;21606;-74
2022/05/28 07:45:49;;;;;;;3.40;2.70;;;;;;;24.62;100.00;99359.02;1715699;83;21068;-72
2022/05/28 07:48:17;;;;;;;5.25;2.77;;;;;;;24.47;100.00;99384.45;1689653;83;21188;-74
2022/05/28 07:50:44;;;;;;;4.05;3.08;;;;;;;24.33;100.00;99375.37;1718699;83;20985;-72
2022/05/28 07:53:12;;;;;;;4.97;3.10;;;;;;;24.20;100.00;99379.50;1722130;83;21002;-71
2022/05/28 07:55:39;;;;;;;4.42;3.27;;;;;;;24.34;100.00;99373.43;1725104;83;21046;-73
2022/05/28 07:58:10;;;;;;;4.15;3.02;;;;;;;24.53;100.00;99382.83;1726478;83;21152;-75
2022/05/28 08:00:42;;;;;;;4.83;3.12;;;;;;;24.45;100.00;99398.02;1727249;83;21518;-72
2022/05/28 08:03:10;;;;;;;4.67;3.35;;;;;;;24.32;100.00;99405.47;1726895;83;21299;-72
2022/05/28 08:05:38;;;;;;;4.65;3.02;;;;;;;24.29;100.00;99399.11;1726283;83;21068;-71
2022/05/28 08:08:08;;;;;;;4.58;3.10;;;;;;;24.54;100.00;99401.07;1725961;83;21028;-75
2022/05/28 08:10:35;;;;;;;5.17;3.67;;;;;;;24.84;100.00;99407.61;1726558;82;21493;-73
2022/05/28 08:13:06;;;;;;;5.05;3.42;;;;;;;24.82;100.00;99413.98;1702127;83;21593;-73
2022/05/28 08:15:34;;;;;;;9.93;4.92;;;;;;;24.57;100.00;99414.31;1620192;87;21107;-73
2022/05/28 08:18:03;;;;;;;7.50;3.10;;;;;;;24.44;100.00;99417.06;1619935;88;21140;-71
2022/05/28 08:23:19;;;;;;;9.40;3.40;;;;;;;24.66;100.00;99417.33;1619419;88;21088;-71
2022/05/28 08:25:47;;;;;;;11.73;3.40;;;;;;;24.86;100.00;99422.54;1622676;88;21158;-71
2022/05/28 08:28:15;;;;;;;5.20;3.00;;;;;;;24.75;100.00;99428.09;1620464;88;21060;-74
2022/05/28 08:30:43;;;;;;;4.45;2.60;;;;;;;24.57;100.00;99426.74;1646363;86;21042;-72
2022/05/28 08:33:13;;;;;;;6.75;2.77;;;;;;;24.26;100.00;99430.08;1658424;86;21106;-71
2022/05/28 08:35:42;;;;;;;12.47;3.45;;;;;;;23.95;100.00;99428.66;1657984;86;21141;-72
2022/05/28 08:38:15;;;;;;;5.03;3.20;;;;;;;23.70;100.00;99421.14;1630277;86;21022;-72
2022/05/28 08:40:57;;;;;;;6.53;2.80;;;;;;;23.56;100.00;99429.11;1620984;88;21109;-71
2022/05/28 08:43:28;;;;;;;4.60;3.40;;;;;;;23.38;100.00;99420.78;1612869;89;21156;-73
2022/05/28 08:45:56;;;;;;;6.67;3.83;;;;;;;23.34;100.00;99423.81;1564380;90;21080;-72
2022/05/28 08:48:27;;;;;;;8.85;3.70;;;;;;;23.32;100.00;99417.75;1528538;93;21117;-72
2022/05/28 08:51:01;;;;;;;9.10;4.58;;;;;;;23.46;100.00;99414.75;1590914;90;21073;-72
2022/05/28 08:53:34;;;;;;;18.60;6.15;;;;;;;23.68;100.00;99426.11;1564373;91;21109;-72
2022/05/28 08:56:01;;;;;;;13.28;6.15;;;;;;;23.89;100.00;99417.35;1545267;93;21618;-71
2022/05/28 08:58:29;;;;;;;12.13;6.47;;;;;;;23.99;100.00;99410.99;1524960;93;21669;-70
2022/05/28 09:01:03;;;;;;;13.15;6.67;;;;;;;23.95;100.00;99407.95;1524322;93;21608;-71
2022/05/28 09:03:57;;;;;;;22.87;8.53;;;;;;;23.91;100.00;99408.80;1544620;92;21104;-72
2022/05/28 09:06:40;;;;;;;19.62;7.80;;;;;;;24.00;100.00;99416.25;1475489;97;21123;-73
2022/05/28 09:09:09;;;;;;;14.55;7.42;;;;;;;24.18;100.00;99427.30;1475512;97;21102;-72
2022/05/28 09:11:46;;;;;;;14.98;7.30;;;;;;;24.35;100.00;99433.11;1475562;97;21103;-71
2022/05/28 09:14:36;;;;;;;14.80;6.60;;;;;;;24.45;100.00;99442.75;1475590;97;21149;-72
2022/05/28 09:17:10;;;;;;;14.63;6.55;;;;;;;24.46;100.00;99448.57;1486236;96;21109;-71
2022/05/28 09:19:42;;;;;;;10.98;5.72;;;;;;;24.47;100.00;99446.09;1472370;94;21120;-72
2022/05/28 09:22:09;;;;;;;16.12;3.92;;;;;;;24.51;100.00;99456.86;1503017;95;21121;-73
2022/05/28 09:24:38;;;;;;;7.70;3.05;;;;;;;24.39;100.00;99455.75;1515223;95;21100;-72
2022/05/28 09:27:37;;;;;;;10.50;3.08;;;;;;;24.33;100.00;99454.64;1503981;95;21094;-73
2022/05/28 09:30:15;;;;;;;3.10;2.22;;;;;;;24.25;100.00;99456.03;1516065;93;21080;-71
2022/05/28 09:33:10;;;;;;;2.92;2.42;;;;;;;24.32;100.00;99458.52;1535367;93;21055;-74
2022/05/28 09:36:11;;;;;;;4.03;2.40;;;;;;;24.71;100.00;99459.36;1516286;93;22332;-71
2022/05/28 09:39:07;;;;;;;9.35;3.15;;;;;;;24.77;100.00;99465.13;1525346;92;21110;-73
2022/05/28 09:42:02;;;;;;;6.72;3.17;;;;;;;24.64;100.00;99466.55;1515330;94;21153;-72
2022/05/28 09:44:50;;;;;;;6.22;3.15;;;;;;;24.52;100.00;99466.79;1495919;96;21089;-72
2022/05/28 09:47:17;;;;;;;13.38;3.00;;;;;;;24.50;100.00;99481.44;1513988;95;21198;-73
2022/05/28 09:49:54;;;;;;;18.95;3.22;;;;;;;24.52;100.00;99494.98;1483686;95;21149;-75
2022/05/28 09:52:34;;;;;;;4.87;2.37;;;;;;;24.33;100.00;99508.51;1469184;98;21117;-71
2022/05/28 09:55:17;;;;;;;13.50;3.30;;;;;;;23.99;100.00;99500.73;1469568;98;21174;-72
2022/05/28 09:57:54;;;;;;;8.10;2.75;;;;;;;23.55;100.00;99506.11;1482908;97;21151;-72
2022/05/28 10:00:21;;;;;;;6.33;2.40;;;;;;;23.00;100.00;99498.63;1464794;98;21638;-74
2022/05/28 10:05:51;;;;;;;5.85;2.30;;;;;;;22.35;100.00;99498.69;1493747;96;21168;-72
2022/05/28 10:08:18;;;;;;;5.20;2.33;;;;;;;22.21;100.00;99487.80;1483150;96;21149;-73
2022/05/28 10:10:58;;;;;;;3.85;2.42;;;;;;;22.04;100.00;99487.90;1512080;95;21041;-73
2022/05/28 10:13:28;;;;;;;8.70;2.30;;;;;;;21.99;100.00;99492.83;1513033;95;21592;-73
2022/05/28 10:16:00;;;;;;;5.80;2.50;;;;;;;21.93;100.00;99495.78;1513073;94;21134;-70
2022/05/28 10:18:37;;;;;;;21.02;3.20;;;;;;;21.68;100.00;99485.33;1509045;95;21109;-73
2022/05/28 10:21:27;;;;;;;5.28;2.80;;;;;;;21.56;100.00;99485.46;1485888;97;21668;-72
2022/05/28 10:23:57;;;;;;;4.83;2.85;;;;;;;21.61;100.00;99479.47;1493580;96;21087;-72
2022/05/28 10:26:29;;;;;;;6.30;2.70;;;;;;;21.72;100.00;99471.33;1474533;97;21612;-71
2022/05/28 10:29:05;;;;;;;8.15;2.85;;;;;;;21.94;100.00;99474.87;1447450;99;21149;-72
2022/05/28 10:31:38;;;;;;;10.25;2.98;;;;;;;22.15;100.00;99479.19;1384396;104;21156;-72
2022/05/28 10:34:05;;;;;;;;;;;;;;;22.10;100.00;99484.13;1387090;104;21150;-72
2022/05/28 10:36:34;;;;;;;8.95;3.25;;;;;;;21.94;100.00;99483.14;1384943;104;20134;-72
2022/05/28 10:39:11;;;;;;;5.70;3.55;;;;;;;21.71;100.00;99478.77;1374838;104;21109;-73
2022/05/28 10:41:38;;;;;;;9.33;3.27;;;;;;;21.50;100.00;99482.37;1328703;108;21135;-71
2022/05/28 10:44:06;;;;;;;6.10;3.58;;;;;;;21.37;100.00;99469.79;1346495;105;21179;-72
2022/05/28 10:46:42;;;;;;;25.32;10.28;;;;;;;21.30;100.00;99472.75;1351198;105;21609;-71
2022/05/28 10:49:44;;;;;;;16.55;6.95;;;;;;;21.23;100.00;99473.48;1383298;102;21201;-72
2022/05/28 10:52:39;;;;;;;6.22;3.17;;;;;;;21.19;100.00;99481.38;1410309;100;21203;-71
2022/05/28 10:55:47;;;;;;;4.28;2.75;;;;;;;21.08;100.00;99489.22;1468547;97;21168;-71
2022/05/28 10:58:39;;;;;;;4.25;2.70;;;;;;;20.88;100.00;99491.69;1494368;96;21164;-72
2022/05/28 11:01:29;;;;;;;5.87;2.77;;;;;;;20.62;100.00;99483.05;1484094;97;21201;-72
2022/05/28 11:04:31;;;;;;;14.47;11.18;;;;;;;20.43;100.00;99483.80;1477383;96;21174;-73
2022/05/28 11:07:32;;;;;;;18.12;11.57;;;;;;;20.34;100.00;99479.81;1476915;97;21111;-70
2022/05/28 11:10:22;;;;;;;9.18;5.60;;;;;;;20.32;100.00;99475.94;1474681;97;21249;-72
2022/05/28 11:13:22;;;;;;;13.35;6.30;;;;;;;20.46;100.00;99479.20;1442941;99;21103;-72
2022/05/28 11:16:06;;;;;;;7.12;4.28;;;;;;;20.60;100.00;99471.45;1476920;97;21115;-74
2022/05/28 11:19:18;;;;;;;51.05;42.43;;;;;;;20.63;100.00;99477.86;1523489;94;21725;-72
2022/05/28 11:22:00;;;;;;;10.30;5.60;;;;;;;20.67;100.00;99479.83;1546480;91;21095;-73
2022/05/28 11:24:49;;;;;;;7.00;4.10;;;;;;;20.85;100.00;99483.39;1576360;91;21142;-72
2022/05/28 11:27:39;;;;;;;10.75;6.42;;;;;;;20.95;100.00;99468.44;1581060;90;21040;-72
2022/05/28 11:30:22;;;;;;;8.10;4.60;;;;;;;21.15;100.00;99466.50;1581277;91;21098;-72
2022/05/28 11:32:58;;;;;;;8.73;4.25;;;;;;;21.38;100.00;99464.59;1560853;92;21101;-73
2022/05/28 11:35:48;;;;;;;14.65;10.65;;;;;;;21.61;100.00;99465.71;1610987;89;21112;-73
2022/05/28 11:38:26;;;;;;;18.40;11.20;;;;;;;21.79;100.00;99474.71;1613554;88;21583;-71
2022/05/28 11:41:36;;;;;;;11.70;5.60;;;;;;;21.90;100.00;99477.02;1587700;90;21547;-75
2022/05/28 11:44:20;;;;;;;63.15;53.00;;;;;;;21.87;100.00;99482.52;1569586;91;21080;-72
2022/05/28 11:47:26;;;;;;;15.60;8.23;;;;;;;21.84;100.00;99476.14;1568471;90;21435;-73
2022/05/28 11:52:53;;;;;;;39.33;35.10;;;;;;;21.94;100.00;99479.01;1482455;97;21102;-73
2022/05/28 11:55:23;;;;;;;12.78;7.50;;;;;;;22.02;100.00;99477.70;1487292;96;21053;-73
2022/05/28 11:58:06;;;;;;;8.93;5.35;;;;;;;22.17;100.00;99486.11;1500267;95;21113;-72